sensor_id;sensor_type;location;lat;lon;timestamp;P1;durP1;ratioP1;P2;durP2;ratioP2
7773;SDS011;3931;42.260;23.116;2022-09-09T00:00:18;9.50;;;6.77;;
7773;SDS011;3931;42.260;23.116;2022-09-09T00:02:45;10.50;;;8.57;;
7773;SDS011;3931;42.260;23.116;2022-09-09T00:05:22;12.23;;;7.50;;
7773;SDS011;3931;42.260;23.116;2022-09-09T00:07:52;11.10;;;7.63;;
7773;SDS011;3931;42.260;23.116;2022-09-09T00:10:22;9.10;;;7.47;;
7773;SDS011;3931;42.260;23.116;2022-09-09T00:12:56;8.77;;;6.47;;
7773;SDS011;3931;42.260;23.116;2022-09-09T00:15:33;9.93;;;8.20;;
7773;SDS011;3931;42.260;23.116;2022-09-09T00:18:07;7.57;;;6.77;;
7773;SDS011;3931;42.260;23.116;2022-09-09T00:20:43;19.43;;;8.07;;
7773;SDS011;3931;42.260;23.116;2022-09-09T00:23:17;9.80;;;7.90;;
7773;SDS011;3931;42.260;23.116;2022-09-09T00:25:51;11.23;;;8.23;;
7773;SDS011;3931;42.260;23.116;2022-09-09T00:28:26;12.77;;;7.80;;
7773;SDS011;3931;42.260;23.116;2022-09-09T00:30:55;11.33;;;7.20;;
7773;SDS011;3931;42.260;23.116;2022-09-09T00:33:26;10.63;;;8.10;;
7773;SDS011;3931;42.260;23.116;2022-09-09T00:35:53;9.30;;;7.50;;
7773;SDS011;3931;42.260;23.116;2022-09-09T00:38:24;12.80;;;8.57;;
7773;SDS011;3931;42.260;23.116;2022-09-09T00:40:55;9.70;;;7.40;;
7773;SDS011;3931;42.260;23.116;2022-09-09T00:43:28;18.83;;;7.97;;
7773;SDS011;3931;42.260;23.116;2022-09-09T00:46:00;13.30;;;7.30;;
7773;SDS011;3931;42.260;23.116;2022-09-09T00:48:42;10.83;;;6.60;;
7773;SDS011;3931;42.260;23.116;2022-09-09T00:51:17;6.73;;;6.03;;
7773;SDS011;3931;42.260;23.116;2022-09-09T00:53:58;7.87;;;6.90;;
7773;SDS011;3931;42.260;23.116;2022-09-09T00:56:35;7.70;;;6.20;;
7773;SDS011;3931;42.260;23.116;2022-09-09T00:59:12;16.23;;;7.57;;
7773;SDS011;3931;42.260;23.116;2022-09-09T01:01:48;13.23;;;7.27;;
7773;SDS011;3931;42.260;23.116;2022-09-09T01:04:16;15.10;;;7.67;;
7773;SDS011;3931;42.260;23.116;2022-09-09T01:06:49;13.93;;;7.33;;
7773;SDS011;3931;42.260;23.116;2022-09-09T01:09:24;11.17;;;7.43;;
7773;SDS011;3931;42.260;23.116;2022-09-09T01:11:59;9.40;;;6.90;;
7773;SDS011;3931;42.260;23.116;2022-09-09T01:14:39;8.07;;;7.23;;
7773;SDS011;3931;42.260;23.116;2022-09-09T01:17:11;8.80;;;6.63;;
7773;SDS011;3931;42.260;23.116;2022-09-09T01:19:45;9.50;;;7.80;;
7773;SDS011;3931;42.260;23.116;2022-09-09T01:22:22;9.23;;;6.73;;
7773;SDS011;3931;42.260;23.116;2022-09-09T01:27:58;8.40;;;6.60;;
7773;SDS011;3931;42.260;23.116;2022-09-09T01:30:27;8.63;;;7.20;;
7773;SDS011;3931;42.260;23.116;2022-09-09T01:32:54;8.17;;;6.57;;
7773;SDS011;3931;42.260;23.116;2022-09-09T01:35:27;9.77;;;7.53;;
7773;SDS011;3931;42.260;23.116;2022-09-09T01:38:01;10.30;;;6.97;;
7773;SDS011;3931;42.260;23.116;2022-09-09T01:40:27;7.20;;;6.17;;
7773;SDS011;3931;42.260;23.116;2022-09-09T01:42:53;9.23;;;6.90;;
7773;SDS011;3931;42.260;23.116;2022-09-09T01:45:21;7.07;;;6.37;;
7773;SDS011;3931;42.260;23.116;2022-09-09T01:47:49;7.70;;;6.30;;
7773;SDS011;3931;42.260;23.116;2022-09-09T01:50:17;7.87;;;6.97;;
7773;SDS011;3931;42.260;23.116;2022-09-09T01:52:43;7.87;;;6.10;;
7773;SDS011;3931;42.260;23.116;2022-09-09T01:55:13;7.83;;;7.00;;
7773;SDS011;3931;42.260;23.116;2022-09-09T01:57:41;14.87;;;8.67;;
7773;SDS011;3931;42.260;23.116;2022-09-09T02:00:14;10.33;;;8.10;;
7773;SDS011;3931;42.260;23.116;2022-09-09T02:02:44;11.90;;;8.13;;
7773;SDS011;3931;42.260;23.116;2022-09-09T02:05:21;11.73;;;8.83;;
7773;SDS011;3931;42.260;23.116;2022-09-09T02:07:57;17.33;;;9.57;;
7773;SDS011;3931;42.260;23.116;2022-09-09T02:10:30;20.03;;;9.83;;
7773;SDS011;3931;42.260;23.116;2022-09-09T02:13:00;15.40;;;8.83;;
7773;SDS011;3931;42.260;23.116;2022-09-09T02:15:30;15.07;;;9.27;;
7773;SDS011;3931;42.260;23.116;2022-09-09T02:18:01;11.53;;;8.47;;
7773;SDS011;3931;42.260;23.116;2022-09-09T02:20:33;12.90;;;8.13;;
7773;SDS011;3931;42.260;23.116;2022-09-09T02:23:00;13.23;;;9.43;;
7773;SDS011;3931;42.260;23.116;2022-09-09T02:25:28;11.70;;;7.97;;
7773;SDS011;3931;42.260;23.116;2022-09-09T02:27:55;11.37;;;8.70;;
7773;SDS011;3931;42.260;23.116;2022-09-09T02:30:23;9.17;;;8.07;;
7773;SDS011;3931;42.260;23.116;2022-09-09T02:32:50;10.47;;;8.73;;
7773;SDS011;3931;42.260;23.116;2022-09-09T02:35:23;13.33;;;9.97;;
7773;SDS011;3931;42.260;23.116;2022-09-09T02:37:51;15.03;;;9.80;;
7773;SDS011;3931;42.260;23.116;2022-09-09T02:40:20;17.40;;;10.70;;
7773;SDS011;3931;42.260;23.116;2022-09-09T02:42:47;10.83;;;9.33;;
7773;SDS011;3931;42.260;23.116;2022-09-09T02:45:15;14.93;;;9.97;;
7773;SDS011;3931;42.260;23.116;2022-09-09T02:47:44;14.10;;;9.37;;
7773;SDS011;3931;42.260;23.116;2022-09-09T02:50:17;11.50;;;8.70;;
7773;SDS011;3931;42.260;23.116;2022-09-09T02:52:52;11.40;;;9.23;;
7773;SDS011;3931;42.260;23.116;2022-09-09T02:55:29;15.30;;;8.30;;
7773;SDS011;3931;42.260;23.116;2022-09-09T02:58:04;12.27;;;8.77;;
7773;SDS011;3931;42.260;23.116;2022-09-09T03:00:32;32.23;;;20.87;;
7773;SDS011;3931;42.260;23.116;2022-09-09T03:03:00;38.30;;;22.80;;
7773;SDS011;3931;42.260;23.116;2022-09-09T03:05:27;17.40;;;10.93;;
7773;SDS011;3931;42.260;23.116;2022-09-09T03:07:54;24.20;;;17.50;;
7773;SDS011;3931;42.260;23.116;2022-09-09T03:10:20;15.43;;;10.37;;
7773;SDS011;3931;42.260;23.116;2022-09-09T03:12:46;19.27;;;9.27;;
7773;SDS011;3931;42.260;23.116;2022-09-09T03:15:12;17.10;;;10.30;;
7773;SDS011;3931;42.260;23.116;2022-09-09T03:17:40;20.97;;;12.33;;
7773;SDS011;3931;42.260;23.116;2022-09-09T03:20:06;16.40;;;10.40;;
7773;SDS011;3931;42.260;23.116;2022-09-09T03:22:33;23.90;;;15.87;;
7773;SDS011;3931;42.260;23.116;2022-09-09T03:25:00;38.40;;;23.50;;
7773;SDS011;3931;42.260;23.116;2022-09-09T03:27:27;15.60;;;11.13;;
7773;SDS011;3931;42.260;23.116;2022-09-09T03:29:53;14.27;;;10.90;;
7773;SDS011;3931;42.260;23.116;2022-09-09T03:32:19;13.87;;;10.50;;
7773;SDS011;3931;42.260;23.116;2022-09-09T03:34:47;18.07;;;12.93;;
7773;SDS011;3931;42.260;23.116;2022-09-09T03:37:14;29.63;;;14.40;;
7773;SDS011;3931;42.260;23.116;2022-09-09T03:39:42;30.70;;;13.77;;
7773;SDS011;3931;42.260;23.116;2022-09-09T03:42:08;16.10;;;11.90;;
7773;SDS011;3931;42.260;23.116;2022-09-09T03:44:35;20.73;;;12.93;;
7773;SDS011;3931;42.260;23.116;2022-09-09T03:47:01;18.53;;;11.70;;
7773;SDS011;3931;42.260;23.116;2022-09-09T03:49:28;19.33;;;10.37;;
7773;SDS011;3931;42.260;23.116;2022-09-09T03:51:54;19.33;;;12.87;;
7773;SDS011;3931;42.260;23.116;2022-09-09T03:54:20;15.00;;;10.37;;
7773;SDS011;3931;42.260;23.116;2022-09-09T03:56:46;34.17;;;23.57;;
7773;SDS011;3931;42.260;23.116;2022-09-09T03:59:13;38.27;;;21.93;;
7773;SDS011;3931;42.260;23.116;2022-09-09T04:01:39;28.40;;;16.67;;
7773;SDS011;3931;42.260;23.116;2022-09-09T04:04:05;20.73;;;13.00;;
7773;SDS011;3931;42.260;23.116;2022-09-09T04:06:31;18.63;;;13.00;;
7773;SDS011;3931;42.260;23.116;2022-09-09T04:08:57;32.00;;;22.17;;
7773;SDS011;3931;42.260;23.116;2022-09-09T04:11:23;31.40;;;21.80;;
7773;SDS011;3931;42.260;23.116;2022-09-09T04:13:49;28.93;;;14.30;;
7773;SDS011;3931;42.260;23.116;2022-09-09T04:16:16;22.07;;;13.57;;
7773;SDS011;3931;42.260;23.116;2022-09-09T04:18:42;29.53;;;19.30;;
7773;SDS011;3931;42.260;23.116;2022-09-09T04:21:09;30.43;;;17.00;;
7773;SDS011;3931;42.260;23.116;2022-09-09T04:23:37;15.20;;;12.07;;
7773;SDS011;3931;42.260;23.116;2022-09-09T04:26:04;25.47;;;13.93;;
7773;SDS011;3931;42.260;23.116;2022-09-09T04:28:31;18.10;;;10.40;;
7773;SDS011;3931;42.260;23.116;2022-09-09T04:31:03;23.40;;;12.77;;
7773;SDS011;3931;42.260;23.116;2022-09-09T04:33:31;26.30;;;17.33;;
7773;SDS011;3931;42.260;23.116;2022-09-09T04:35:57;22.13;;;13.40;;
7773;SDS011;3931;42.260;23.116;2022-09-09T04:38:23;15.30;;;11.83;;
7773;SDS011;3931;42.260;23.116;2022-09-09T04:40:49;21.60;;;13.30;;
7773;SDS011;3931;42.260;23.116;2022-09-09T04:43:17;19.63;;;11.00;;
7773;SDS011;3931;42.260;23.116;2022-09-09T04:45:44;20.77;;;11.97;;
7773;SDS011;3931;42.260;23.116;2022-09-09T04:48:13;26.93;;;11.73;;
7773;SDS011;3931;42.260;23.116;2022-09-09T04:50:40;19.50;;;13.37;;
7773;SDS011;3931;42.260;23.116;2022-09-09T04:53:06;15.77;;;11.97;;
7773;SDS011;3931;42.260;23.116;2022-09-09T04:55:33;13.80;;;10.10;;
7773;SDS011;3931;42.260;23.116;2022-09-09T04:58:02;16.27;;;11.07;;
7773;SDS011;3931;42.260;23.116;2022-09-09T05:00:29;22.67;;;11.90;;
7773;SDS011;3931;42.260;23.116;2022-09-09T05:02:55;17.00;;;10.30;;
7773;SDS011;3931;42.260;23.116;2022-09-09T05:05:21;20.70;;;9.90;;
7773;SDS011;3931;42.260;23.116;2022-09-09T05:07:48;18.90;;;10.90;;
7773;SDS011;3931;42.260;23.116;2022-09-09T05:10:14;16.33;;;10.00;;
7773;SDS011;3931;42.260;23.116;2022-09-09T05:12:41;12.13;;;9.40;;
7773;SDS011;3931;42.260;23.116;2022-09-09T05:15:08;15.07;;;10.53;;
7773;SDS011;3931;42.260;23.116;2022-09-09T05:17:35;9.63;;;8.50;;
7773;SDS011;3931;42.260;23.116;2022-09-09T05:20:01;10.90;;;9.80;;
7773;SDS011;3931;42.260;23.116;2022-09-09T05:22:28;13.73;;;10.30;;
7773;SDS011;3931;42.260;23.116;2022-09-09T05:24:56;17.50;;;9.97;;
7773;SDS011;3931;42.260;23.116;2022-09-09T05:27:23;17.20;;;10.70;;
7773;SDS011;3931;42.260;23.116;2022-09-09T05:29:49;19.43;;;11.00;;
7773;SDS011;3931;42.260;23.116;2022-09-09T05:32:15;12.50;;;10.20;;
7773;SDS011;3931;42.260;23.116;2022-09-09T05:34:42;13.70;;;8.63;;
7773;SDS011;3931;42.260;23.116;2022-09-09T05:37:08;12.70;;;9.30;;
7773;SDS011;3931;42.260;23.116;2022-09-09T05:39:34;11.30;;;9.57;;
7773;SDS011;3931;42.260;23.116;2022-09-09T05:42:02;16.17;;;8.57;;
7773;SDS011;3931;42.260;23.116;2022-09-09T05:44:29;14.47;;;9.80;;
7773;SDS011;3931;42.260;23.116;2022-09-09T05:46:55;13.13;;;10.10;;
7773;SDS011;3931;42.260;23.116;2022-09-09T05:49:23;15.60;;;9.80;;
7773;SDS011;3931;42.260;23.116;2022-09-09T05:51:49;16.53;;;11.10;;
7773;SDS011;3931;42.260;23.116;2022-09-09T05:54:15;18.53;;;9.83;;
7773;SDS011;3931;42.260;23.116;2022-09-09T05:56:42;13.97;;;9.60;;
7773;SDS011;3931;42.260;23.116;2022-09-09T05:59:08;20.23;;;9.90;;
7773;SDS011;3931;42.260;23.116;2022-09-09T06:01:35;20.57;;;10.27;;
7773;SDS011;3931;42.260;23.116;2022-09-09T06:04:05;34.90;;;10.27;;
7773;SDS011;3931;42.260;23.116;2022-09-09T06:06:32;22.90;;;10.60;;
7773;SDS011;3931;42.260;23.116;2022-09-09T06:09:02;12.23;;;10.40;;
7773;SDS011;3931;42.260;23.116;2022-09-09T06:11:31;18.40;;;10.47;;
7773;SDS011;3931;42.260;23.116;2022-09-09T06:13:58;18.90;;;9.90;;
7773;SDS011;3931;42.260;23.116;2022-09-09T06:16:27;14.03;;;8.97;;
7773;SDS011;3931;42.260;23.116;2022-09-09T06:18:54;11.77;;;8.43;;
7773;SDS011;3931;42.260;23.116;2022-09-09T06:21:22;15.67;;;9.37;;
7773;SDS011;3931;42.260;23.116;2022-09-09T06:23:49;16.30;;;9.30;;
7773;SDS011;3931;42.260;23.116;2022-09-09T06:26:17;18.70;;;10.60;;
7773;SDS011;3931;42.260;23.116;2022-09-09T06:28:46;11.13;;;8.03;;
7773;SDS011;3931;42.260;23.116;2022-09-09T06:31:13;22.03;;;11.13;;
7773;SDS011;3931;42.260;23.116;2022-09-09T06:33:43;15.27;;;8.50;;
7773;SDS011;3931;42.260;23.116;2022-09-09T06:36:10;14.43;;;8.90;;
7773;SDS011;3931;42.260;23.116;2022-09-09T06:38:38;18.20;;;11.30;;
7773;SDS011;3931;42.260;23.116;2022-09-09T06:41:04;29.73;;;9.60;;
7773;SDS011;3931;42.260;23.116;2022-09-09T06:43:31;17.33;;;8.07;;
7773;SDS011;3931;42.260;23.116;2022-09-09T06:45:58;18.70;;;9.73;;
7773;SDS011;3931;42.260;23.116;2022-09-09T06:48:25;8.23;;;7.43;;
7773;SDS011;3931;42.260;23.116;2022-09-09T06:50:52;13.93;;;7.43;;
7773;SDS011;3931;42.260;23.116;2022-09-09T06:53:26;13.60;;;7.40;;
7773;SDS011;3931;42.260;23.116;2022-09-09T06:55:52;10.40;;;7.00;;
7773;SDS011;3931;42.260;23.116;2022-09-09T06:58:18;14.10;;;7.20;;
7773;SDS011;3931;42.260;23.116;2022-09-09T07:00:44;14.83;;;8.20;;
7773;SDS011;3931;42.260;23.116;2022-09-09T07:03:10;10.27;;;6.67;;
7773;SDS011;3931;42.260;23.116;2022-09-09T07:05:36;8.97;;;6.50;;
7773;SDS011;3931;42.260;23.116;2022-09-09T07:08:03;13.10;;;6.30;;
7773;SDS011;3931;42.260;23.116;2022-09-09T07:10:29;13.80;;;7.57;;
7773;SDS011;3931;42.260;23.116;2022-09-09T07:12:55;14.93;;;7.30;;
7773;SDS011;3931;42.260;23.116;2022-09-09T07:15:21;9.97;;;6.87;;
7773;SDS011;3931;42.260;23.116;2022-09-09T07:17:48;15.70;;;8.10;;
7773;SDS011;3931;42.260;23.116;2022-09-09T07:20:14;14.87;;;7.90;;
7773;SDS011;3931;42.260;23.116;2022-09-09T07:22:40;14.73;;;7.50;;
7773;SDS011;3931;42.260;23.116;2022-09-09T07:25:07;10.17;;;6.93;;
7773;SDS011;3931;42.260;23.116;2022-09-09T07:27:34;10.00;;;7.17;;
7773;SDS011;3931;42.260;23.116;2022-09-09T07:30:00;12.03;;;6.50;;
7773;SDS011;3931;42.260;23.116;2022-09-09T07:32:27;11.93;;;7.43;;
7773;SDS011;3931;42.260;23.116;2022-09-09T07:34:53;16.23;;;7.50;;
7773;SDS011;3931;42.260;23.116;2022-09-09T07:37:19;14.20;;;7.50;;
7773;SDS011;3931;42.260;23.116;2022-09-09T07:39:45;17.83;;;7.10;;
7773;SDS011;3931;42.260;23.116;2022-09-09T07:42:11;13.10;;;6.60;;
7773;SDS011;3931;42.260;23.116;2022-09-09T07:44:37;7.77;;;6.97;;
7773;SDS011;3931;42.260;23.116;2022-09-09T07:47:05;9.50;;;6.20;;
7773;SDS011;3931;42.260;23.116;2022-09-09T07:49:32;11.93;;;7.10;;
7773;SDS011;3931;42.260;23.116;2022-09-09T07:51:58;17.10;;;6.97;;
7773;SDS011;3931;42.260;23.116;2022-09-09T07:54:24;10.10;;;6.57;;
7773;SDS011;3931;42.260;23.116;2022-09-09T07:56:51;9.83;;;6.83;;
7773;SDS011;3931;42.260;23.116;2022-09-09T07:59:18;9.73;;;7.10;;
7773;SDS011;3931;42.260;23.116;2022-09-09T08:01:45;18.53;;;6.23;;
7773;SDS011;3931;42.260;23.116;2022-09-09T08:04:13;12.60;;;6.67;;
7773;SDS011;3931;42.260;23.116;2022-09-09T08:06:42;13.03;;;6.10;;
7773;SDS011;3931;42.260;23.116;2022-09-09T08:09:09;14.73;;;7.30;;
7773;SDS011;3931;42.260;23.116;2022-09-09T08:11:36;12.20;;;6.53;;
7773;SDS011;3931;42.260;23.116;2022-09-09T08:14:03;12.53;;;6.63;;
7773;SDS011;3931;42.260;23.116;2022-09-09T08:16:30;15.30;;;6.93;;
7773;SDS011;3931;42.260;23.116;2022-09-09T08:18:57;21.27;;;8.50;;
7773;SDS011;3931;42.260;23.116;2022-09-09T08:21:26;8.83;;;6.63;;
7773;SDS011;3931;42.260;23.116;2022-09-09T08:23:54;8.53;;;6.23;;
7773;SDS011;3931;42.260;23.116;2022-09-09T08:26:22;13.23;;;6.77;;
7773;SDS011;3931;42.260;23.116;2022-09-09T08:28:49;18.17;;;6.47;;
7773;SDS011;3931;42.260;23.116;2022-09-09T08:31:17;19.43;;;8.60;;
7773;SDS011;3931;42.260;23.116;2022-09-09T08:33:46;11.00;;;6.40;;
7773;SDS011;3931;42.260;23.116;2022-09-09T08:36:13;12.47;;;6.53;;
7773;SDS011;3931;42.260;23.116;2022-09-09T08:38:42;11.23;;;6.10;;
7773;SDS011;3931;42.260;23.116;2022-09-09T08:41:18;15.33;;;6.50;;
7773;SDS011;3931;42.260;23.116;2022-09-09T08:44:02;17.73;;;11.27;;
7773;SDS011;3931;42.260;23.116;2022-09-09T08:46:33;11.27;;;6.30;;
7773;SDS011;3931;42.260;23.116;2022-09-09T08:49:06;11.17;;;6.93;;
7773;SDS011;3931;42.260;23.116;2022-09-09T08:51:44;13.70;;;6.20;;
7773;SDS011;3931;42.260;23.116;2022-09-09T08:54:11;19.40;;;6.90;;
7773;SDS011;3931;42.260;23.116;2022-09-09T08:56:37;16.80;;;7.17;;
7773;SDS011;3931;42.260;23.116;2022-09-09T08:59:03;9.27;;;6.47;;
7773;SDS011;3931;42.260;23.116;2022-09-09T09:01:39;9.10;;;6.20;;
7773;SDS011;3931;42.260;23.116;2022-09-09T09:04:14;12.40;;;7.27;;
7773;SDS011;3931;42.260;23.116;2022-09-09T09:06:58;11.30;;;6.43;;
7773;SDS011;3931;42.260;23.116;2022-09-09T09:09:33;11.00;;;7.07;;
7773;SDS011;3931;42.260;23.116;2022-09-09T09:12:08;26.03;;;7.23;;
7773;SDS011;3931;42.260;23.116;2022-09-09T09:14:41;9.83;;;6.80;;
7773;SDS011;3931;42.260;23.116;2022-09-09T09:17:09;13.73;;;6.80;;
7773;SDS011;3931;42.260;23.116;2022-09-09T09:19:39;13.70;;;6.33;;
7773;SDS011;3931;42.260;23.116;2022-09-09T09:22:15;10.00;;;7.07;;
7773;SDS011;3931;42.260;23.116;2022-09-09T09:24:45;9.50;;;7.13;;
7773;SDS011;3931;42.260;23.116;2022-09-09T09:27:18;17.90;;;7.23;;
7773;SDS011;3931;42.260;23.116;2022-09-09T09:29:51;20.93;;;6.83;;
7773;SDS011;3931;42.260;23.116;2022-09-09T09:32:22;12.63;;;6.77;;
7773;SDS011;3931;42.260;23.116;2022-09-09T09:34:53;14.27;;;7.00;;
7773;SDS011;3931;42.260;23.116;2022-09-09T09:37:23;17.77;;;9.63;;
7773;SDS011;3931;42.260;23.116;2022-09-09T09:39:54;14.60;;;8.53;;
7773;SDS011;3931;42.260;23.116;2022-09-09T09:42:20;16.53;;;7.57;;
7773;SDS011;3931;42.260;23.116;2022-09-09T09:44:47;10.83;;;6.70;;
7773;SDS011;3931;42.260;23.116;2022-09-09T09:47:14;13.60;;;7.70;;
7773;SDS011;3931;42.260;23.116;2022-09-09T09:49:50;13.77;;;6.70;;
7773;SDS011;3931;42.260;23.116;2022-09-09T09:52:20;15.93;;;7.13;;
7773;SDS011;3931;42.260;23.116;2022-09-09T09:54:49;13.10;;;7.30;;
7773;SDS011;3931;42.260;23.116;2022-09-09T09:57:16;11.70;;;6.73;;
7773;SDS011;3931;42.260;23.116;2022-09-09T09:59:43;10.50;;;6.87;;
7773;SDS011;3931;42.260;23.116;2022-09-09T10:02:17;15.23;;;6.90;;
7773;SDS011;3931;42.260;23.116;2022-09-09T10:04:45;13.07;;;6.77;;
7773;SDS011;3931;42.260;23.116;2022-09-09T10:07:13;8.80;;;6.57;;
7773;SDS011;3931;42.260;23.116;2022-09-09T10:09:44;9.67;;;6.20;;
7773;SDS011;3931;42.260;23.116;2022-09-09T10:12:14;10.17;;;6.80;;
7773;SDS011;3931;42.260;23.116;2022-09-09T10:14:51;14.05;;;7.47;;
7773;SDS011;3931;42.260;23.116;2022-09-09T10:17:25;11.03;;;6.70;;
7773;SDS011;3931;42.260;23.116;2022-09-09T10:20:15;9.97;;;6.90;;
7773;SDS011;3931;42.260;23.116;2022-09-09T10:22:50;20.70;;;7.40;;
7773;SDS011;3931;42.260;23.116;2022-09-09T10:25:27;8.90;;;6.60;;
7773;SDS011;3931;42.260;23.116;2022-09-09T10:28:11;12.90;;;7.00;;
7773;SDS011;3931;42.260;23.116;2022-09-09T10:30:57;8.13;;;5.90;;
7773;SDS011;3931;42.260;23.116;2022-09-09T10:33:37;13.03;;;6.20;;
7773;SDS011;3931;42.260;23.116;2022-09-09T10:36:16;10.33;;;6.60;;
7773;SDS011;3931;42.260;23.116;2022-09-09T10:38:46;11.10;;;5.87;;
7773;SDS011;3931;42.260;23.116;2022-09-09T10:41:16;7.00;;;6.30;;
7773;SDS011;3931;42.260;23.116;2022-09-09T10:46:39;9.43;;;5.87;;
7773;SDS011;3931;42.260;23.116;2022-09-09T10:49:20;6.50;;;5.77;;
7773;SDS011;3931;42.260;23.116;2022-09-09T10:51:59;11.07;;;5.63;;
7773;SDS011;3931;42.260;23.116;2022-09-09T10:54:36;14.50;;;6.07;;
7773;SDS011;3931;42.260;23.116;2022-09-09T10:57:11;10.20;;;5.63;;
7773;SDS011;3931;42.260;23.116;2022-09-09T10:59:43;14.33;;;6.70;;
7773;SDS011;3931;42.260;23.116;2022-09-09T11:02:14;15.00;;;9.80;;
7773;SDS011;3931;42.260;23.116;2022-09-09T11:04:44;10.20;;;6.83;;
7773;SDS011;3931;42.260;23.116;2022-09-09T11:07:18;11.53;;;6.70;;
7773;SDS011;3931;42.260;23.116;2022-09-09T11:09:53;6.50;;;5.90;;
7773;SDS011;3931;42.260;23.116;2022-09-09T11:12:25;10.10;;;5.90;;
7773;SDS011;3931;42.260;23.116;2022-09-09T11:14:55;10.13;;;6.20;;
7773;SDS011;3931;42.260;23.116;2022-09-09T11:17:26;10.20;;;6.60;;
7773;SDS011;3931;42.260;23.116;2022-09-09T11:19:59;11.77;;;6.40;;
7773;SDS011;3931;42.260;23.116;2022-09-09T11:22:26;9.83;;;6.20;;
7773;SDS011;3931;42.260;23.116;2022-09-09T11:24:57;8.77;;;6.80;;
7773;SDS011;3931;42.260;23.116;2022-09-09T11:27:32;13.23;;;6.90;;
7773;SDS011;3931;42.260;23.116;2022-09-09T11:30:15;9.03;;;5.80;;
7773;SDS011;3931;42.260;23.116;2022-09-09T11:32:48;19.33;;;7.00;;
7773;SDS011;3931;42.260;23.116;2022-09-09T11:35:41;17.70;;;9.53;;
7773;SDS011;3931;42.260;23.116;2022-09-09T11:38:19;16.03;;;8.17;;
7773;SDS011;3931;42.260;23.116;2022-09-09T11:40:54;14.60;;;8.40;;
7773;SDS011;3931;42.260;23.116;2022-09-09T11:43:26;16.10;;;8.77;;
7773;SDS011;3931;42.260;23.116;2022-09-09T11:45:56;10.20;;;7.00;;
7773;SDS011;3931;42.260;23.116;2022-09-09T11:48:27;18.93;;;6.67;;
7773;SDS011;3931;42.260;23.116;2022-09-09T11:50:57;15.87;;;8.00;;
7773;SDS011;3931;42.260;23.116;2022-09-09T11:53:25;14.10;;;7.93;;
7773;SDS011;3931;42.260;23.116;2022-09-09T11:56:02;13.23;;;8.37;;
7773;SDS011;3931;42.260;23.116;2022-09-09T11:58:33;24.00;;;8.47;;
7773;SDS011;3931;42.260;23.116;2022-09-09T12:01:12;25.27;;;7.40;;
7773;SDS011;3931;42.260;23.116;2022-09-09T12:03:40;23.07;;;9.50;;
7773;SDS011;3931;42.260;23.116;2022-09-09T12:06:11;29.10;;;9.13;;
7773;SDS011;3931;42.260;23.116;2022-09-09T12:08:41;18.00;;;7.73;;
7773;SDS011;3931;42.260;23.116;2022-09-09T12:11:10;26.07;;;9.63;;
7773;SDS011;3931;42.260;23.116;2022-09-09T12:13:37;29.10;;;9.00;;
7773;SDS011;3931;42.260;23.116;2022-09-09T12:16:03;26.30;;;13.97;;
7773;SDS011;3931;42.260;23.116;2022-09-09T12:18:32;26.03;;;15.33;;
7773;SDS011;3931;42.260;23.116;2022-09-09T12:21:01;25.07;;;11.00;;
7773;SDS011;3931;42.260;23.116;2022-09-09T12:23:36;23.60;;;10.43;;
7773;SDS011;3931;42.260;23.116;2022-09-09T12:26:15;18.13;;;8.70;;
7773;SDS011;3931;42.260;23.116;2022-09-09T12:28:54;22.13;;;8.13;;
7773;SDS011;3931;42.260;23.116;2022-09-09T12:31:29;17.33;;;7.20;;
7773;SDS011;3931;42.260;23.116;2022-09-09T12:34:08;21.70;;;8.00;;
7773;SDS011;3931;42.260;23.116;2022-09-09T12:36:36;14.93;;;8.80;;
7773;SDS011;3931;42.260;23.116;2022-09-09T12:39:09;19.70;;;9.00;;
7773;SDS011;3931;42.260;23.116;2022-09-09T12:41:50;13.80;;;7.67;;
7773;SDS011;3931;42.260;23.116;2022-09-09T12:44:22;20.27;;;8.23;;
7773;SDS011;3931;42.260;23.116;2022-09-09T12:46:49;25.07;;;7.43;;
7773;SDS011;3931;42.260;23.116;2022-09-09T12:49:25;11.40;;;6.90;;
7773;SDS011;3931;42.260;23.116;2022-09-09T12:51:54;15.23;;;7.33;;
7773;SDS011;3931;42.260;23.116;2022-09-09T12:54:22;11.50;;;7.70;;
7773;SDS011;3931;42.260;23.116;2022-09-09T12:56:48;11.10;;;6.63;;
7773;SDS011;3931;42.260;23.116;2022-09-09T12:59:21;12.10;;;6.57;;
7773;SDS011;3931;42.260;23.116;2022-09-09T13:01:55;10.67;;;6.87;;
7773;SDS011;3931;42.260;23.116;2022-09-09T13:04:21;12.17;;;7.40;;
7773;SDS011;3931;42.260;23.116;2022-09-09T13:06:47;7.30;;;6.00;;
7773;SDS011;3931;42.260;23.116;2022-09-09T13:09:14;14.57;;;6.50;;
7773;SDS011;3931;42.260;23.116;2022-09-09T13:11:41;18.13;;;8.23;;
7773;SDS011;3931;42.260;23.116;2022-09-09T13:14:12;16.33;;;6.83;;
7773;SDS011;3931;42.260;23.116;2022-09-09T13:16:54;17.40;;;7.60;;
7773;SDS011;3931;42.260;23.116;2022-09-09T13:19:22;14.70;;;7.27;;
7773;SDS011;3931;42.260;23.116;2022-09-09T13:21:50;9.97;;;7.17;;
7773;SDS011;3931;42.260;23.116;2022-09-09T13:24:23;20.80;;;8.60;;
7773;SDS011;3931;42.260;23.116;2022-09-09T13:26:54;19.27;;;7.80;;
7773;SDS011;3931;42.260;23.116;2022-09-09T13:29:21;16.83;;;8.00;;
7773;SDS011;3931;42.260;23.116;2022-09-09T13:31:48;12.90;;;8.43;;
7773;SDS011;3931;42.260;23.116;2022-09-09T13:34:25;15.90;;;8.77;;
7773;SDS011;3931;42.260;23.116;2022-09-09T13:36:54;15.00;;;7.97;;
7773;SDS011;3931;42.260;23.116;2022-09-09T13:39:24;16.83;;;7.93;;
7773;SDS011;3931;42.260;23.116;2022-09-09T13:41:50;16.70;;;9.60;;
7773;SDS011;3931;42.260;23.116;2022-09-09T13:44:19;15.13;;;8.57;;
7773;SDS011;3931;42.260;23.116;2022-09-09T13:46:58;10.80;;;7.90;;
7773;SDS011;3931;42.260;23.116;2022-09-09T13:49:27;14.40;;;8.50;;
7773;SDS011;3931;42.260;23.116;2022-09-09T13:52:02;10.70;;;7.43;;
7773;SDS011;3931;42.260;23.116;2022-09-09T13:54:30;11.50;;;9.53;;
7773;SDS011;3931;42.260;23.116;2022-09-09T13:56:56;12.37;;;9.10;;
7773;SDS011;3931;42.260;23.116;2022-09-09T13:59:22;13.77;;;9.10;;
7773;SDS011;3931;42.260;23.116;2022-09-09T14:01:49;12.00;;;7.50;;
7773;SDS011;3931;42.260;23.116;2022-09-09T14:04:17;13.80;;;9.70;;
7773;SDS011;3931;42.260;23.116;2022-09-09T14:06:46;12.63;;;7.17;;
7773;SDS011;3931;42.260;23.116;2022-09-09T14:09:14;12.77;;;7.53;;
7773;SDS011;3931;42.260;23.116;2022-09-09T14:11:41;9.70;;;7.50;;
7773;SDS011;3931;42.260;23.116;2022-09-09T14:14:07;8.57;;;7.33;;
7773;SDS011;3931;42.260;23.116;2022-09-09T14:16:34;17.80;;;7.87;;
7773;SDS011;3931;42.260;23.116;2022-09-09T14:19:00;12.27;;;9.77;;
7773;SDS011;3931;42.260;23.116;2022-09-09T14:21:27;7.57;;;6.77;;
7773;SDS011;3931;42.260;23.116;2022-09-09T14:23:53;13.90;;;7.50;;
7773;SDS011;3931;42.260;23.116;2022-09-09T14:26:20;8.20;;;6.33;;
7773;SDS011;3931;42.260;23.116;2022-09-09T14:28:46;18.23;;;9.13;;
7773;SDS011;3931;42.260;23.116;2022-09-09T14:31:13;11.90;;;8.00;;
7773;SDS011;3931;42.260;23.116;2022-09-09T14:33:39;17.70;;;7.00;;
7773;SDS011;3931;42.260;23.116;2022-09-09T14:36:06;12.07;;;7.30;;
7773;SDS011;3931;42.260;23.116;2022-09-09T14:38:33;10.40;;;7.10;;
7773;SDS011;3931;42.260;23.116;2022-09-09T14:41:05;23.17;;;6.87;;
7773;SDS011;3931;42.260;23.116;2022-09-09T14:43:31;15.53;;;6.57;;
7773;SDS011;3931;42.260;23.116;2022-09-09T14:45:57;13.73;;;7.40;;
7773;SDS011;3931;42.260;23.116;2022-09-09T14:48:23;10.30;;;6.18;;
7773;SDS011;3931;42.260;23.116;2022-09-09T14:50:50;13.50;;;6.57;;
7773;SDS011;3931;42.260;23.116;2022-09-09T14:53:16;18.50;;;8.47;;
7773;SDS011;3931;42.260;23.116;2022-09-09T14:55:42;9.80;;;7.50;;
7773;SDS011;3931;42.260;23.116;2022-09-09T14:58:09;16.10;;;8.77;;
7773;SDS011;3931;42.260;23.116;2022-09-09T15:00:35;13.10;;;8.73;;
7773;SDS011;3931;42.260;23.116;2022-09-09T15:03:01;14.80;;;8.67;;
7773;SDS011;3931;42.260;23.116;2022-09-09T15:05:27;11.70;;;7.50;;
7773;SDS011;3931;42.260;23.116;2022-09-09T15:07:54;15.13;;;7.50;;